Ana Sayfa
METAR-TAF:

METAR-TAF

Havaalanları :

Sabiha Gökçen Havalimanı

Istanbul Sabiha Gökçen, Türkiye

Enlem: 40-53-55N, Boylam: 029-18-33E, yükseklik: 95 m

Güncel hava durumu gözlemi

Rapor saat 07:20 UTC de 19 dakika önce yapıldı.
Rüzgar doğu/kuzeydoğudan 5 kt
Sıcaklık 6°C
Nem 70%
Basınç 1026 hPa
Görüş mesafesi 10 km veya daha fazla
4000 ft yükseklikte parçalı çok bulutlu

METAR: LTFJ 230720Z 06005KT 9999 BKN040 06/01 Q1026 NOSIG RMK RWY24 06004KT

Saat: 10:39 (07:39 UTC)

Tahmin

Rapor saat 04:40 UTC de 2 saat ve 59 dakika önce yapıldı.
Ayın 23'si saat 06 UTC'den ayın 24'si saat 06 UTC'ye kadar geçerli Tahmin
Rüzgar kuzeydoğudan 7 kt
Görüş mesafesi 10 km veya daha fazla
4000 ft yükseklikte parçalı bulutlu
Dönüşüyor
ayın 23'si saat 10 UTC'den ayın 23'si saat 13 UTC'ye kadar
Görüş mesafesi 10 km veya daha fazla
1500 m altında bulut yok ve kümülonimbus yok

TAF: LTFJ 230440Z 2306/2406 04007KT 9999 SCT040 BECMG 2310/2313 CAVOK

4.000'den fazla havaalanı için hava durumu gözlemleri ve tahminleri (METAR ve TAF raporları).

Kullanılabilir istasyonlar harita üzerinde sarı ve kırmızı noktalarla gösterilir.

İstasyonun adını görmek için fareyi noktanın üzerinde gezdirin.

Sonrasında hava gözlem ve tahminlerini görmek için tıklayın.

Haritayı değiştirmek için: yaklaştırmak için siyah artı işaretli yeşil düğmeye ve uzaklaştırmak için de eksi işaretli düğmeye hızla tıklayın; bitişik haritalar için yeşil okları kullanın.


METAR-TAF: